Tiempo atmosférico en la estación meteorológica de Quintana del Castillo, Villameca, León (995 m.)



Fecha
DESCASC
Temp. máxima en grados centígrados (hora)
DESCASC
Temp. mínima en grados centígrados (hora)
DESCASC
Temp. media en grados centígrados
DESCASC
Racha de viento máxima en m/sg (hora)
DESCASC
Velocidad máxima media en intervalos de 10 minutos(hora)
DESCASC
Precipitaciones diarias en mm
DESCASC
Precipitaciones de 00:00 a 06:00 en mm
DESCASC
Precipitaciones de 06:00 a 12:00 en mm
DESCASC
Precipitaciones de 12:00 a 18:00 en mm
DESCASC
Precipitaciones de 18:00 a 24:00 en mm
DESCASC
10-07-2020 29.2 (19:00) 13.5 (07:10) 21.4 7.78 (15:20) 3.89 (06:30) 0 0 0 0 0
09-07-2020 30.5 (16:50) 16 (06:20) 23.3 12.5 (19:20) 7.5 (19:30) 0.2 0.2 0 0 0
08-07-2020 32.9 (17:10) 15.3 (05:40) 24.1 18.89 (18:00) 11.67 (22:10) 2 0 0 0 2
07-07-2020 31.8 (18:30) 12.5 (07:30) 22.1 5.83 (14:00) 3.33 (23:50) 0 0 0 0 0
06-07-2020 30 (18:20) 15.6 (00:00) 22.8 6.67 (21:50) 4.17 (00:30) 0 0 0 0 0
05-07-2020 30.6 (17:30) 14.8 (00:00) 22.7 5.56 (00:30) 3.89 (19:30) 0 0 0 0 0
04-07-2020 28.2 (17:30) 9.9 (00:00) 19.1 8.89 (18:40) 5.28 (18:40) 0 0 0 0 0
03-07-2020 24 (19:30) 7.3 (06:30) 15.7 8.06 (22:10) 5 (20:30) 0 0 0 0 0
02-07-2020 20.4 (18:00) 12 (00:00) 16.2 12.5 (16:50) 7.78 (16:00) 0 0 0 0 0
01-07-2020 23.4 (17:50) 16.2 (00:00) 19.8 14.17 (15:30) 8.61 (15:50) 0 0 0 0 0
30-06-2020 27.5 (14:40) 13.8 (00:00) 20.7 9.17 (19:30) 5.83 (19:30) 0 0 0 0 0
29-06-2020 26.7 (19:00) 13.6 (00:00) 20.2 8.89 (17:30) 5.28 (18:10) 0 0 0 0 0
28-06-2020 22.8 (17:20) 11.9 (00:00) 17.3 16.39 (17:50) 8.89 (16:10) 0 0 0 0 0
27-06-2020 19.8 (15:30) 13.2 (00:00) 16.5 11.67 (15:10) 6.67 (15:10) 0 0 0 0 0
26-06-2020 22.1 (17:50) 13.3 (00:00) 17.7 12.5 (17:20) 8.06 (17:20) 0 0 0 0 0
25-06-2020 25.5 (18:40) 13.3 (00:00) 19.4 11.11 (19:10) 6.11 (19:10) 1.4 0 0 1.4 0
24-06-2020 29.4 (14:00) 14.6 (00:00) 22 11.39 (22:20) 7.78 (22:20) 25.8 0 0 0 25.8
23-06-2020 31.5 (16:50) 13.3 (00:00) 22.4 7.78 (19:10) 4.72 (19:30) 0 0 0 0 0
22-06-2020 28.6 (18:30) 10.7 (00:00) 19.7 8.33 (16:50) 4.44 (22:50) 0 0 0 0 0
21-06-2020 24.3 (17:00) 10.8 (00:00) 17.5 11.94 (16:20) 7.78 (15:40) 0 0 0 0 0
20-06-2020 24.5 (16:30) 8.1 (00:00) 16.3 12.22 (18:50) 7.22 (18:50) 0 0 0 0 0
19-06-2020 22 (18:10) 6.8 (00:00) 14.4 11.94 (19:20) 7.5 (19:10) 0 0 0 0 0
18-06-2020 20 (17:50) 6.8 (00:00) 13.4 11.94 (14:50) 7.5 (14:50) 0 0 0 0 0
17-06-2020 17.4 (17:10) 6.9 (00:00) 12.1 10 (20:10) 6.67 (20:10) 0 0 0 0 0
16-06-2020 16.4 (17:30) 8 (00:00) 12.2 15.28 (17:50) 9.17 (17:50) 1.4 0 0.6 0.8 0
15-06-2020 16.6 (17:30) 8.4 (00:00) 12.5 11.67 (17:10) 7.22 (17:10) 0 0 0 0 0
14-06-2020 14.9 (18:10) 7.1 (00:00) 11 11.67 (17:50) 7.22 (17:40) 0 0 0 0 0
13-06-2020 14.5 (18:10) 7 (00:00) 10.8 14.44 (17:50) 8.61 (16:10) 3.2 0.8 2.4 0 0
12-06-2020 10.9 (16:30) 5.8 (00:00) 8.3 13.89 (03:00) 8.06 (18:50) 11.6 3.2 1 6.6 0.8

Gráficas

Temp. máximas Temp. mínimas Temp. medias Precipitaciones Rachas de viento máximas Velocidades máximas media en intervalos de 10 minutos

Datos horarios

Fecha y hora oficial Temperatura (ºC) Velocidad del viento (km/h) Dirección del viento Racha (km/h) Dirección de racha Precipitación (mm) Presión (hPa) Tendencia (hPa) Humedad (%)
2020-07-11 23:00:00 -- -- -- -- -- -- -- -- --
2020-07-11 22:00:00 -- -- -- -- -- -- -- -- --
2020-07-11 21:00:00 28.1 2 Oeste 13 Sur 0 -- -- 39
2020-07-11 20:00:00 28.3 7 Sur 15 Sudoeste 0 -- -- 37
2020-07-11 19:00:00 29.3 8 Sur 19 Sudoeste 0 -- -- 37
2020-07-11 18:00:00 29.7 9 Sur 22 Sudoeste 0 -- -- 35
2020-07-11 17:00:00 28.8 8 Sur 22 Sur 0 -- -- 38
2020-07-11 16:00:00 28.6 8 Sudoeste 19 Sudoeste 0 -- -- 39
2020-07-11 15:00:00 27 9 Sur 19 Sudeste 0 -- -- 42
2020-07-11 14:00:00 25.8 8 Sur 21 Sur 0 -- -- 46
2020-07-11 13:00:00 24.5 7 Sudeste 22 Sur 0 -- -- 46
2020-07-11 12:00:00 23.2 9 Sur 17 Sudeste 0 -- -- 44
2020-07-11 11:00:00 20.6 5 Sudeste 10 Sudeste 0 -- -- 56
2020-07-11 10:00:00 17.8 3 Sudeste 7 Sur 0 -- -- 74
2020-07-11 09:00:00 15.3 3 Sudoeste 8 Norte 0 -- -- 83
2020-07-11 08:00:00 12.8 7 Norte 9 Norte 0 -- -- 93
2020-07-11 07:00:00 12.4 5 Norte 9 Norte 0 -- -- 95
2020-07-11 06:00:00 12.8 0 Calma 8 Norte 0 -- -- 89
2020-07-11 05:00:00 13.9 4 Nordeste 9 Nordeste 0 -- -- 91
2020-07-11 04:00:00 14.9 2 Nordeste 6 Sur 0 -- -- 88
2020-07-11 03:00:00 15.4 2 Sudoeste 10 Sur 0 -- -- 80
2020-07-11 02:00:00 16.8 3 Sudoeste 12 Oeste 0 -- -- 75
2020-07-11 01:00:00 17.7 4 Oeste 9 Oeste 0 -- -- 67
2020-07-11 00:00:00 19.8 0 Calma 8 Este 0 -- -- 67
2020-07-10 23:00:00 21.7 4 Sudeste 8 Sudeste 0 -- -- 58
2020-07-10 22:00:00 23.7 3 Sudoeste 21 Este 0 -- -- 51
2020-07-10 21:00:00 25.6 8 Este 14 Este 0 -- -- 50
2020-07-10 20:00:00 27.5 6 Oeste 15 Oeste 0 -- -- 40
2020-07-10 19:00:00 29.2 6 Oeste 20 Sudeste 0 -- -- 37
2020-07-10 18:00:00 27.4 5 Sur 26 Sur 0 -- -- 38
2020-07-10 17:00:00 28.3 10 Sur 27 Sudoeste 0 -- -- 36
2020-07-10 16:00:00 28.7 9 Sudoeste 28 Sudoeste 0 -- -- 35
2020-07-10 15:00:00 28.4 9 Sudoeste 23 Sudoeste 0 -- -- 38
2020-07-10 14:00:00 27.3 8 Sur 19 Sur 0 -- -- 40
2020-07-10 13:00:00 26.4 4 Este 15 Sur 0 -- -- 40
2020-07-10 12:00:00 24.3 3 Este 10 Oeste 0 -- -- 49
2020-07-10 11:00:00 23.5 3 Oeste 9 Sudoeste 0 -- -- 54
2020-07-10 10:00:00 20.6 3 Sur 8 Sur 0 -- -- 63
2020-07-10 09:00:00 16.5 4 Oeste 10 Sur 0 -- -- 76
2020-07-10 08:00:00 14.7 0 Calma 11 Norte 0 -- -- 76
2020-07-10 07:00:00 14.5 9 Norte 17 Norte 0 -- -- 82
2020-07-10 06:00:00 14.5 5 Norte 12 Nordeste 0 -- -- 86
2020-07-10 05:00:00 14.3 2 Norte 11 Norte 0 -- -- 84
2020-07-10 04:00:00 15.2 5 Norte 12 Norte 0 -- -- 79
2020-07-10 03:00:00 15 6 Nordeste 20 Sur 0 -- -- 82
2020-07-10 02:00:00 18.9 9 Norte 15 Norte 0 -- -- 61
2020-07-10 01:00:00 18 9 Norte 14 Norte 0 -- -- 70
2020-07-10 00:00:00 19 5 Norte 16 Nordeste 0 -- -- 70
2020-07-09 23:00:00 19.8 10 Este 16 Este 0 -- -- 67
2020-07-09 22:00:00 21.6 6 Sudeste 37 Sudeste 0 -- -- 59
2020-07-09 21:00:00 26 14 Nordeste 29 Noroeste 0 -- -- 53
2020-07-09 20:00:00 27.5 22 Noroeste 45 Noroeste 0 -- -- 46
2020-07-09 19:00:00 28.8 16 Noroeste 32 Noroeste 0 -- -- 37
2020-07-09 18:00:00 28.8 6 Este 17 Este 0 -- -- 34
2020-07-09 17:00:00 30.3 5 Sudeste 15 Sudoeste 0 -- -- 31
2020-07-09 16:00:00 28.7 6 Nordeste 18 Oeste 0 -- -- 38
2020-07-09 15:00:00 28.5 6 Sudeste 17 Sur 0 -- -- 37
2020-07-09 14:00:00 27.8 6 Sudeste 15 Sur 0 -- -- 38
2020-07-09 13:00:00 27.1 4 Nordeste 14 Sudeste 0 -- -- 38
2020-07-09 12:00:00 25.4 5 Sudeste 14 Sudeste 0 -- -- 43
2020-07-09 11:00:00 23.5 5 Sudoeste 10 Sudoeste 0 -- -- 47
2020-07-09 10:00:00 21.3 3 Oeste 5 Oeste 0 -- -- 54
2020-07-09 09:00:00 18.2 0 Calma 10 Norte 0 -- -- 71
2020-07-09 08:00:00 16.9 4 Nordeste 12 Norte 0 -- -- 73
2020-07-09 07:00:00 16.1 6 Nordeste 12 Norte 0 -- -- 76
2020-07-09 06:00:00 16.1 7 Norte 11 Norte 0 -- -- 74
2020-07-09 05:00:00 16.9 4 Norte 14 Norte 0 -- -- 75
2020-07-09 04:00:00 18.2 10 Norte 14 Nordeste 0 -- -- 69
2020-07-09 03:00:00 17.6 5 Nordeste 13 Nordeste 0 -- -- 74
2020-07-09 02:00:00 18.8 3 Sur 31 Nordeste 0.2 -- -- 59
2020-07-09 01:00:00 18.7 15 Nordeste 21 Nordeste 0 -- -- 68
2020-07-09 00:00:00 18.7 14 Sudeste 19 Sudeste 0 -- -- 70
2020-07-08 23:00:00 18.7 8 Este 58 Este 0.2 -- -- 68
2020-07-08 22:00:00 20.5 16 Oeste 48 Este 0 -- -- 50
2020-07-08 21:00:00 20.2 29 Nordeste 43 Nordeste 1 -- -- 59
2020-07-08 20:00:00 17.9 27 Sudoeste 48 Sudoeste 0.8 -- -- 70
2020-07-08 19:00:00 24.4 28 Oeste 62 Sudoeste 0 -- -- 37
2020-07-08 18:00:00 28.7 27 Sudoeste 68 Sudoeste 0 -- -- 27
2020-07-08 17:00:00 32.7 12 Sudoeste 31 Sur 0 -- -- 26
2020-07-08 16:00:00 31.8 14 Sur 34 Sur 0 -- -- 28
2020-07-08 15:00:00 31.4 12 Sur 31 Sudeste 0 -- -- 27
2020-07-08 14:00:00 30 15 Sudeste 29 Sudeste 0 -- -- 32
2020-07-08 13:00:00 29.3 10 Sudeste 27 Sudeste 0 -- -- 37
2020-07-08 12:00:00 27.7 18 Sudeste 28 Sudeste 0 -- -- 39
2020-07-08 11:00:00 26.1 13 Sudeste 28 Sudeste 0 -- -- 41
2020-07-08 10:00:00 24.6 9 Sudeste 16 Sudeste 0 -- -- 50
2020-07-08 09:00:00 21 6 Norte 15 Nordeste 0 -- -- 58
2020-07-08 08:00:00 16.7 9 Norte 13 Norte 0 -- -- 77
2020-07-08 07:00:00 15.7 8 Norte 15 Norte 0 -- -- 82
2020-07-08 06:00:00 15.9 12 Norte 18 Norte 0 -- -- 75
2020-07-08 05:00:00 15.5 12 Norte 15 Norte 0 -- -- 74
2020-07-08 04:00:00 16 5 Nordeste 12 Norte 0 -- -- 75
2020-07-08 03:00:00 17 7 Norte 15 Norte 0 -- -- 71
2020-07-08 02:00:00 18.2 13 Norte 16 Norte 0 -- -- 67
2020-07-08 01:00:00 20.2 7 Nordeste 16 Sudeste 0 -- -- 56
2020-07-08 00:00:00 20.3 11 Nordeste 15 Norte 0 -- -- 63
2020-07-07 23:00:00 21.6 10 Norte 13 Norte 0 -- -- 58
2020-07-07 22:00:00 24.4 9 Norte 11 Norte 0 -- -- 53
2020-07-07 21:00:00 28.1 6 Sudeste 14 Sur 0 -- -- 43
2020-07-07 20:00:00 30.3 6 Sudeste 21 Sur 0 -- -- 31
2020-07-07 19:00:00 31.2 10 Sur 21 Sur 0 -- -- 29
2020-07-07 18:00:00 31.1 6 Sur 18 Sur 0 -- -- 28
2020-07-07 17:00:00 30.3 5 Este 20 Sudoeste 0 -- -- 32
2020-07-07 16:00:00 29.8 8 Oeste 20 Sudoeste 0 -- -- 34
2020-07-07 15:00:00 28.2 5 Este 17 Sur 0 -- -- 35
2020-07-07 14:00:00 27.3 9 Sudoeste 21 Sudoeste 0 -- -- 33
2020-07-07 13:00:00 25.6 5 Sur 14 Sur 0 -- -- 34
2020-07-07 12:00:00 23.7 5 Sur 14 Sudeste 0 -- -- 34
2020-07-07 11:00:00 21.7 5 Sur 10 Sudoeste 0 -- -- 37
2020-07-07 10:00:00 19.5 3 Sudoeste 6 Sur 0 -- -- 47
2020-07-07 09:00:00 16.9 3 Nordeste 11 Norte 0 -- -- 62
2020-07-07 08:00:00 13.5 10 Norte 13 Norte 0 -- -- 84
2020-07-07 07:00:00 12.8 10 Norte 13 Norte 0 -- -- 90
2020-07-07 06:00:00 13 10 Norte 15 Norte 0 -- -- 88
2020-07-07 05:00:00 13.9 7 Norte 10 Norte 0 -- -- 88
2020-07-07 04:00:00 14.7 6 Norte 8 Norte 0 -- -- 84
2020-07-07 03:00:00 15.9 4 Nordeste 7 Nordeste 0 -- -- 81
2020-07-07 02:00:00 16.6 2 Sur 6 Oeste 0 -- -- 70
2020-07-07 01:00:00 18.1 4 Sudoeste 7 Sudoeste 0 -- -- 65
2020-07-07 00:00:00 19.8 0 Calma 9 Sur 0 -- -- 61
2020-07-06 23:00:00 20.9 5 Sur 21 Sudeste 0 -- -- 56
2020-07-06 22:00:00 24.1 9 Sudeste 24 Sur 0 -- -- 50
2020-07-06 21:00:00 27.2 5 Sudoeste 13 Sur 0 -- -- 50
2020-07-06 20:00:00 27.8 8 Sur 19 Sur 0 -- -- 49
2020-07-06 19:00:00 28.8 8 Sur 23 Sudoeste 0 -- -- 48
2020-07-06 18:00:00 29.7 9 Sur 24 Sudeste 0 -- -- 45
2020-07-06 17:00:00 29.5 9 Sur 23 Sur 0 -- -- 45
2020-07-06 16:00:00 28.9 7 Sudoeste 16 Sudoeste 0 -- -- 45
2020-07-06 15:00:00 28 7 Sur 19 Sur 0 -- -- 49
2020-07-06 14:00:00 26.1 8 Sudeste 15 Sur 0 -- -- 54
2020-07-06 13:00:00 25.1 8 Oeste 17 Sudoeste 0 -- -- 56
2020-07-06 12:00:00 23.9 6 Sur 14 Sur 0 -- -- 61
2020-07-06 11:00:00 22.3 6 Sur 14 Sudoeste 0 -- -- 65
2020-07-06 10:00:00 20.7 3 Sur 8 Sur 0 -- -- 72
2020-07-06 09:00:00 19.2 3 Sur 9 Norte 0 -- -- 76
2020-07-06 08:00:00 16.4 7 Norte 12 Norte 0 -- -- 88
2020-07-06 07:00:00 15.7 7 Norte 8 Norte 0 -- -- 92
2020-07-06 06:00:00 16.4 4 Nordeste 8 Norte 0 -- -- 90
2020-07-06 05:00:00 16.5 4 Sudoeste 13 Norte 0 -- -- 85
2020-07-06 04:00:00 18 8 Nordeste 10 Norte 0 -- -- 86
2020-07-06 03:00:00 19 5 Nordeste 12 Norte 0 -- -- 82
2020-07-06 02:00:00 20.6 11 Norte 18 Nordeste 0 -- -- 76
2020-07-06 01:00:00 21 13 Nordeste 19 Nordeste 0 -- -- 76
2020-07-06 00:00:00 21.4 13 Norte 16 Norte 0 -- -- 74
2020-07-05 23:00:00 23.9 11 Noroeste 14 Noroeste 0 -- -- 65
2020-07-05 22:00:00 24.9 4 Sudeste 14 Norte 0 -- -- 61
2020-07-05 21:00:00 25.7 12 Nordeste 16 Nordeste 0 -- -- 64
2020-07-05 20:00:00 26.7 10 Nordeste 18 Norte 0 -- -- 55
2020-07-05 19:00:00 27.4 13 Norte 16 Norte 0 -- -- 50
2020-07-05 18:00:00 29.4 3 Oeste 15 Sur 0 -- -- 42
2020-07-05 17:00:00 29.9 5 Noroeste 16 Noroeste 0 -- -- 39
2020-07-05 16:00:00 28.8 5 Este 12 Sudeste 0 -- -- 43
2020-07-05 15:00:00 28.3 4 Sudeste 16 Sudeste 0 -- -- 40
2020-07-05 14:00:00 26.8 9 Sudeste 17 Sudeste 0 -- -- 44
2020-07-05 13:00:00 25.8 4 Sudoeste 13 Sur 0 -- -- 47
2020-07-05 12:00:00 24 6 Oeste 14 Oeste 0 -- -- 53
2020-07-05 11:00:00 22.4 5 Sudoeste 11 Sur 0 -- -- 57
2020-07-05 10:00:00 20.9 3 Sur 7 Sudoeste 0 -- -- 62
2020-07-05 09:00:00 19 0 Calma 9 Norte 0 -- -- 69
2020-07-05 08:00:00 15.7 9 Norte 12 Norte 0 -- -- 84
2020-07-05 07:00:00 14.8 8 Norte 10 Norte 0 -- -- 88
2020-07-05 06:00:00 15.3 6 Norte 13 Norte 0 -- -- 84
2020-07-05 05:00:00 15.9 9 Norte 13 Norte 0 -- -- 82
2020-07-05 04:00:00 16.6 9 Norte 12 Norte 0 -- -- 82
2020-07-05 03:00:00 17.1 3 Noroeste 16 Norte 0 -- -- 76
2020-07-05 02:00:00 17.5 10 Norte 14 Norte 0 -- -- 75
2020-07-05 01:00:00 17.9 3 Sudoeste 20 Sur 0 -- -- 72
2020-07-05 00:00:00 20.6 10 Norte 16 Norte 0 -- -- 64
2020-07-04 23:00:00 21.3 11 Norte 15 Norte 0 -- -- 60
2020-07-04 22:00:00 23 6 Nordeste 15 Noroeste 0 -- -- 61
2020-07-04 21:00:00 25.9 12 Noroeste 29 Oeste 0 -- -- 46
2020-07-04 20:00:00 27.3 12 Noroeste 28 Noroeste 0 -- -- 40
2020-07-04 19:00:00 27.6 16 Oeste 32 Oeste 0 -- -- 39
2020-07-04 18:00:00 27.8 17 Oeste 27 Oeste 0 -- -- 39
2020-07-04 17:00:00 27.5 10 Noroeste 21 Noroeste 0 -- -- 36
2020-07-04 16:00:00 27.2 9 Oeste 19 Oeste 0 -- -- 35
2020-07-04 15:00:00 26 9 Oeste 17 Oeste 0 -- -- 38
2020-07-04 14:00:00 24.5 6 Nordeste 22 Oeste 0 -- -- 43
2020-07-04 13:00:00 23.9 8 Sur 17 Sudoeste 0 -- -- 43
2020-07-04 12:00:00 21.9 5 Sudeste 12 Sur 0 -- -- 52
2020-07-04 11:00:00 19.7 3 Sur 9 Sur 0 -- -- 58
2020-07-04 10:00:00 17.4 3 Sur 6 Sudoeste 0 -- -- 68
2020-07-04 09:00:00 13.9 0 Calma 16 Norte 0 -- -- 79
2020-07-04 08:00:00 11.4 12 Norte 18 Norte 0 -- -- 88
2020-07-04 07:00:00 10.1 12 Norte 15 Norte 0 -- -- 93
2020-07-04 06:00:00 10.8 6 Norte 13 Norte 0 -- -- 91
2020-07-04 05:00:00 11.4 7 Norte 17 Norte 0 -- -- 86
2020-07-04 04:00:00 13 2 Oeste 13 Norte 0 -- -- 79
2020-07-04 03:00:00 14.7 12 Nordeste 20 Nordeste 0 -- -- 77
2020-07-04 02:00:00 15.3 14 Norte 24 Norte 0 -- -- 74
2020-07-04 01:00:00 15.8 13 Norte 19 Norte 0 -- -- 73
2020-07-04 00:00:00 16.4 10 Norte 17 Norte 0 -- -- 66
2020-07-03 23:00:00 17.9 5 Norte 29 Noroeste 0 -- -- 57
2020-07-03 22:00:00 20.1 17 Noroeste 27 Noroeste 0 -- -- 44
2020-07-03 21:00:00 22.3 15 Noroeste 28 Oeste 0 -- -- 39
2020-07-03 20:00:00 23.6 14 Noroeste 27 Oeste 0 -- -- 36
2020-07-03 19:00:00 23.9 11 Oeste 24 Oeste 0 -- -- 33
2020-07-03 18:00:00 23.9 10 Sudoeste 24 Oeste 0 -- -- 38
2020-07-03 17:00:00 22.7 3 Nordeste 19 Noroeste 0 -- -- 43
2020-07-03 16:00:00 22.4 8 Oeste 18 Oeste 0 -- -- 44
2020-07-03 15:00:00 21.4 8 Sudoeste 19 Oeste 0 -- -- 41
2020-07-03 14:00:00 19.6 10 Oeste 22 Oeste 0 -- -- 47
2020-07-03 13:00:00 18.7 4 Oeste 13 Sur 0 -- -- 55
2020-07-03 12:00:00 16.1 5 Sudeste 14 Sudeste 0 -- -- 60
2020-07-03 11:00:00 14.4 4 Sudeste 12 Sur 0 -- -- 69
2020-07-03 10:00:00 12.8 5 Sur 10 Sur 0 -- -- 70
2020-07-03 09:00:00 10 3 Sur 9 Norte 0 -- -- 83
2020-07-03 08:00:00 8.2 6 Norte 12 Norte 0 -- -- 89
2020-07-03 07:00:00 7.3 8 Norte 15 Norte 0 -- -- 94
2020-07-03 06:00:00 7.7 10 Norte 14 Norte 0 -- -- 94
2020-07-03 05:00:00 8.2 9 Norte 13 Norte 0 -- -- 93
2020-07-03 04:00:00 8.3 10 Norte 17 Norte 0 -- -- 92
2020-07-03 03:00:00 8.8 12 Norte 17 Norte 0 -- -- 91
2020-07-03 02:00:00 9.5 6 Norte 10 Norte 0 -- -- 90
2020-07-03 01:00:00 10.8 8 Norte 16 Norte 0 -- -- 86
2020-07-03 00:00:00 12 6 Norte 17 Noroeste 0 -- -- 78
2020-07-02 23:00:00 13.2 10 Noroeste 21 Noroeste 0 -- -- 71
2020-07-02 22:00:00 15.2 13 Noroeste 30 Noroeste 0 -- -- 65
2020-07-02 21:00:00 17.1 18 Noroeste 39 Noroeste 0 -- -- 57
2020-07-02 20:00:00 18.4 26 Noroeste 40 Noroeste 0 -- -- 52
2020-07-02 19:00:00 19.4 23 Noroeste 41 Noroeste 0 -- -- 53
2020-07-02 18:00:00 20.4 21 Noroeste 39 Noroeste 0 -- -- 50
2020-07-02 17:00:00 19.9 27 Noroeste 45 Oeste 0 -- -- 46
2020-07-02 16:00:00 19.3 28 Oeste 44 Oeste 0 -- -- 52
2020-07-02 15:00:00 19 25 Noroeste 39 Noroeste 0 -- -- 54
2020-07-02 14:00:00 18.6 23 Oeste 38 Oeste 0 -- -- 57
2020-07-02 13:00:00 17.7 21 Oeste 39 Oeste 0 -- -- 55
2020-07-02 12:00:00 17.2 15 Noroeste 31 Noroeste 0 -- -- 57
2020-07-02 11:00:00 15.6 18 Noroeste 30 Oeste 0 -- -- 66
2020-07-02 10:00:00 14.3 10 Oeste 23 Oeste 0 -- -- 79
2020-07-02 09:00:00 13.7 7 Noroeste 17 Noroeste 0 -- -- 84
2020-07-02 08:00:00 12.7 9 Oeste 14 Oeste 0 -- -- 87
2020-07-02 07:00:00 12.7 6 Noroeste 14 Noroeste 0 -- -- 86
2020-07-02 06:00:00 12.5 9 Oeste 22 Noroeste 0 -- -- 89
2020-07-02 05:00:00 13.1 4 Noroeste 24 Noroeste 0 -- -- 83
2020-07-02 04:00:00 13.2 13 Noroeste 35 Noroeste 0 -- -- 84
2020-07-02 03:00:00 13.5 14 Noroeste 30 Noroeste 0 -- -- 80
2020-07-02 02:00:00 14.7 21 Noroeste 39 Noroeste 0 -- -- 76
2020-07-02 01:00:00 15.3 14 Noroeste 27 Noroeste 0 -- -- 73
2020-07-02 00:00:00 16.2 12 Noroeste 25 Noroeste 0 -- -- 69
2020-07-01 23:00:00 16.7 9 Noroeste 20 Oeste 0 -- -- 70
2020-07-01 22:00:00 18.3 8 Norte 30 Noroeste 0 -- -- 65
2020-07-01 21:00:00 20.3 14 Noroeste 36 Oeste 0 -- -- 59
2020-07-01 20:00:00 21.3 27 Oeste 45 Oeste 0 -- -- 55
2020-07-01 19:00:00 22.6 17 Noroeste 46 Oeste 0 -- -- 54
2020-07-01 18:00:00 22.8 31 Oeste 50 Oeste 0 -- -- 51
2020-07-01 17:00:00 23.1 25 Noroeste 44 Oeste 0 -- -- 52
2020-07-01 16:00:00 23.1 30 Oeste 51 Oeste 0 -- -- 56
2020-07-01 15:00:00 22.9 28 Oeste 49 Oeste 0 -- -- 54
2020-07-01 14:00:00 22.3 21 Oeste 38 Oeste 0 -- -- 57
2020-07-01 13:00:00 21.1 24 Oeste 41 Oeste 0 -- -- 63
2020-07-01 12:00:00 20.8 24 Oeste 33 Oeste 0 -- -- 61
2020-07-01 11:00:00 18.8 17 Norte 28 Noroeste 0 -- -- 73
2020-07-01 10:00:00 17.3 10 Noroeste 23 Norte 0 -- -- 83
2020-07-01 09:00:00 17.2 12 Norte 26 Norte 0 -- -- 81
2020-07-01 08:00:00 16.6 19 Noroeste 28 Noroeste 0 -- -- 86
2020-07-01 07:00:00 16.3 17 Norte 30 Norte 0 -- -- 91
2020-07-01 06:00:00 16.8 15 Norte 24 Norte 0 -- -- 93
2020-07-01 05:00:00 16.8 16 Norte 27 Nordeste 0 -- -- 92
2020-07-01 04:00:00 17.2 17 Nordeste 29 Nordeste 0 -- -- 89
2020-07-01 03:00:00 17.7 12 Norte 24 Nordeste 0 -- -- 83
2020-07-01 02:00:00 18 15 Nordeste 23 Nordeste 0 -- -- 80
2020-07-01 01:00:00 17.9 8 Norte 13 Norte 0 -- -- 79
2020-07-01 00:00:00 18.5 4 Norte 12 Norte 0 -- -- 74
2020-06-30 23:00:00 19.3 5 Nordeste 12 Norte 0 -- -- 74
2020-06-30 22:00:00 20.5 8 Norte 13 Noroeste 0 -- -- 64
2020-06-30 21:00:00 21.6 4 Norte 20 Este 0 -- -- 60
2020-06-30 20:00:00 20.9 12 Norte 33 Noroeste 0 -- -- 61
2020-06-30 19:00:00 21.8 18 Norte 32 Noroeste 0 -- -- 61
2020-06-30 18:00:00 24 11 Noroeste 15 Noroeste 0 -- -- 57
2020-06-30 17:00:00 25.3 5 Sudoeste 22 Oeste 0 -- -- 62
2020-06-30 16:00:00 25.6 3 Sudoeste 17 Sudoeste 0 -- -- 60
2020-06-30 15:00:00 26.9 6 Sur 18 Sudeste 0 -- -- 46
2020-06-30 14:00:00 26.4 5 Este 16 Sudeste 0 -- -- 50
2020-06-30 13:00:00 24.8 3 Este 12 Oeste 0 -- -- 52
2020-06-30 12:00:00 23.3 3 Sudeste 12 Sur 0 -- -- 54
2020-06-30 11:00:00 22.4 4 Oeste 8 Sudoeste 0 -- -- 57
2020-06-30 10:00:00 20.6 0 Calma 6 Norte 0 -- -- 65
2020-06-30 09:00:00 16.9 6 Norte 9 Norte 0 -- -- 80
2020-06-30 08:00:00 15 6 Norte 12 Norte 0 -- -- 84
2020-06-30 07:00:00 13.8 10 Norte 12 Norte 0 -- -- 89
2020-06-30 06:00:00 14.5 9 Norte 13 Norte 0 -- -- 88
2020-06-30 05:00:00 15.4 7 Norte 9 Norte 0 -- -- 85
2020-06-30 04:00:00 16 5 Norte 14 Norte 0 -- -- 79
2020-06-30 03:00:00 16.4 7 Norte 10 Nordeste 0 -- -- 82
2020-06-30 02:00:00 16.3 2 Nordeste 16 Norte 0 -- -- 78
2020-06-30 01:00:00 17.8 11 Norte 14 Norte 0 -- -- 73
2020-06-30 00:00:00 18.6 7 Norte 13 Norte 0 -- -- 70
2020-06-29 23:00:00 19.8 9 Norte 12 Norte 0 -- -- 71
2020-06-29 22:00:00 22.4 9 Noroeste 17 Noroeste 0 -- -- 56
2020-06-29 21:00:00 24.8 13 Noroeste 24 Noroeste 0 -- -- 50
2020-06-29 20:00:00 26.1 15 Noroeste 31 Oeste 0 -- -- 46
2020-06-29 19:00:00 26.7 15 Noroeste 29 Oeste 0 -- -- 43
2020-06-29 18:00:00 26.5 17 Oeste 32 Oeste 0 -- -- 42
2020-06-29 17:00:00 26.3 14 Oeste 26 Noroeste 0 -- -- 46
2020-06-29 16:00:00 25.9 11 Oeste 29 Oeste 0 -- -- 43
2020-06-29 15:00:00 24.8 12 Oeste 21 Oeste 0 -- -- 48
2020-06-29 14:00:00 23.1 7 Sudeste 13 Sudeste 0 -- -- 54
2020-06-29 13:00:00 22 3 Este 12 Sudoeste 0 -- -- 55
2020-06-29 12:00:00 20.3 3 Nordeste 8 Oeste 0 -- -- 68
2020-06-29 11:00:00 19 2 Nordeste 9 Nordeste 0 -- -- 70
2020-06-29 10:00:00 16.7 9 Oeste 16 Oeste 0 -- -- 83
2020-06-29 09:00:00 15.5 4 Norte 17 Norte 0 -- -- 87
2020-06-29 08:00:00 14.7 15 Norte 21 Norte 0 -- -- 92
2020-06-29 07:00:00 13.7 12 Norte 23 Noroeste 0 -- -- 94
2020-06-29 06:00:00 13.9 7 Norte 18 Norte 0 -- -- 91
2020-06-29 05:00:00 14.2 16 Norte 23 Norte 0 -- -- 93
2020-06-29 04:00:00 14.5 8 Norte 24 Oeste 0 -- -- 90
2020-06-29 03:00:00 15.2 12 Noroeste 25 Oeste 0 -- -- 85
2020-06-29 02:00:00 14.9 12 Norte 23 Norte 0 -- -- 87
2020-06-29 01:00:00 15.3 15 Norte 25 Norte 0 -- -- 86
2020-06-29 00:00:00 16.1 16 Norte 26 Noroeste 0 -- -- 84
2020-06-28 23:00:00 17 10 Noroeste 41 Noroeste 0 -- -- 78
2020-06-28 22:00:00 18.3 19 Noroeste 39 Noroeste 0 -- -- 72
2020-06-28 21:00:00 20.2 24 Noroeste 46 Noroeste 0 -- -- 62
2020-06-28 20:00:00 21.6 22 Noroeste 40 Noroeste 0 -- -- 61
2020-06-28 19:00:00 22.2 25 Noroeste 44 Oeste 0 -- -- 61
2020-06-28 18:00:00 22.6 23 Noroeste 59 Noroeste 0 -- -- 59
2020-06-28 17:00:00 22.5 24 Noroeste 44 Oeste 0 -- -- 60
2020-06-28 16:00:00 22.3 28 Noroeste 45 Noroeste 0 -- -- 61
2020-06-28 15:00:00 21.8 31 Oeste 45 Noroeste 0 -- -- 61
2020-06-28 14:00:00 21.7 22 Noroeste 39 Oeste 0 -- -- 60
2020-06-28 13:00:00 20.9 23 Oeste 36 Oeste 0 -- -- 62
2020-06-28 12:00:00 20.4 11 Noroeste 35 Oeste 0 -- -- 64
2020-06-28 11:00:00 18.1 22 Noroeste 38 Oeste 0 -- -- 68
2020-06-28 10:00:00 15.8 23 Oeste 34 Oeste 0 -- -- 75
2020-06-28 09:00:00 15.3 10 Norte 24 Norte 0 -- -- 79
2020-06-28 08:00:00 13.4 17 Norte 31 Norte 0 -- -- 88
2020-06-28 07:00:00 12.3 20 Norte 26 Noroeste 0 -- -- 91
2020-06-28 06:00:00 12.1 14 Norte 21 Norte 0 -- -- 93
2020-06-28 05:00:00 13 8 Nordeste 15 Norte 0 -- -- 91
2020-06-28 04:00:00 12.2 13 Norte 16 Norte 0 -- -- 92
2020-06-28 03:00:00 12.8 12 Norte 16 Norte 0 -- -- 89
2020-06-28 02:00:00 14.2 6 Sudeste 12 Norte 0 -- -- 83
2020-06-28 01:00:00 14.4 5 Norte 14 Norte 0 -- -- 83
2020-06-28 00:00:00 15.1 4 Nordeste 17 Noroeste 0 -- -- 82
2020-06-27 23:00:00 16.6 11 Noroeste 22 Noroeste 0 -- -- 73
2020-06-27 22:00:00 17.4 11 Noroeste 19 Noroeste 0 -- -- 74
2020-06-27 21:00:00 18.4 8 Oeste 29 Noroeste 0 -- -- 75
2020-06-27 20:00:00 18.6 13 Noroeste 36 Oeste 0 -- -- 73
2020-06-27 19:00:00 18.9 15 Oeste 35 Noroeste 0 -- -- 73
2020-06-27 18:00:00 19.2 20 Noroeste 39 Oeste 0 -- -- 71
2020-06-27 17:00:00 18.9 21 Noroeste 38 Oeste 0 -- -- 72
2020-06-27 16:00:00 19 22 Noroeste 42 Oeste 0 -- -- 69
2020-06-27 15:00:00 19.3 24 Noroeste 40 Oeste 0 -- -- 68
2020-06-27 14:00:00 18.3 17 Noroeste 33 Oeste 0 -- -- 70
2020-06-27 13:00:00 17.8 17 Noroeste 30 Oeste 0 -- -- 72
2020-06-27 12:00:00 16.5 19 Noroeste 33 Oeste 0 -- -- 78
2020-06-27 11:00:00 16.1 19 Noroeste 32 Oeste 0 -- -- 78
2020-06-27 10:00:00 15.2 18 Noroeste 27 Oeste 0 -- -- 81
2020-06-27 09:00:00 15 12 Norte 25 Norte 0 -- -- 85
2020-06-27 08:00:00 13.8 18 Noroeste 31 Noroeste 0 -- -- 86
2020-06-27 07:00:00 13.3 16 Noroeste 31 Noroeste 0 -- -- 92
2020-06-27 06:00:00 13.8 13 Noroeste 26 Noroeste 0 -- -- 89
2020-06-27 05:00:00 13.8 4 Noroeste 13 Noroeste 0 -- -- 89
2020-06-27 04:00:00 14.2 13 Noroeste 26 Noroeste 0 -- -- 83
2020-06-27 03:00:00 13.9 12 Oeste 19 Oeste 0 -- -- 91
2020-06-27 02:00:00 14.6 9 Oeste 18 Oeste 0 -- -- 86
2020-06-27 01:00:00 15.2 4 Oeste 15 Oeste 0 -- -- 81
2020-06-27 00:00:00 15.7 9 Noroeste 24 Noroeste 0 -- -- 79
2020-06-26 23:00:00 16.1 13 Noroeste 32 Noroeste 0 -- -- 75
2020-06-26 22:00:00 16.8 12 Noroeste 32 Noroeste 0 -- -- 70
2020-06-26 21:00:00 18.1 18 Oeste 37 Noroeste 0 -- -- 64
2020-06-26 20:00:00 18.8 24 Noroeste 42 Oeste 0 -- -- 63
2020-06-26 19:00:00 20.1 25 Noroeste 41 Oeste 0 -- -- 57
2020-06-26 18:00:00 21.6 24 Noroeste 45 Oeste 0 -- -- 49
2020-06-26 17:00:00 20.7 27 Noroeste 42 Noroeste 0 -- -- 48
2020-06-26 16:00:00 21.2 21 Noroeste 39 Noroeste 0 -- -- 42
2020-06-26 15:00:00 21.4 28 Noroeste 40 Oeste 0 -- -- 30
2020-06-26 14:00:00 20 26 Oeste 39 Oeste 0 -- -- 42
2020-06-26 13:00:00 19.3 19 Oeste 33 Oeste 0 -- -- 53
2020-06-26 12:00:00 17.5 12 Noroeste 34 Oeste 0 -- -- 71
2020-06-26 11:00:00 15.5 17 Noroeste 31 Noroeste 0 -- -- 78
2020-06-26 10:00:00 16 6 Norte 23 Norte 0 -- -- 82
2020-06-26 09:00:00 14.4 15 Noroeste 26 Norte 0 -- -- 88
2020-06-26 08:00:00 13.8 12 Noroeste 21 Noroeste 0 -- -- 91
2020-06-26 07:00:00 13.4 13 Noroeste 26 Norte 0 -- -- 94
2020-06-26 06:00:00 13.4 14 Norte 27 Noroeste 0 -- -- 93
2020-06-26 05:00:00 13.8 12 Norte 20 Norte 0 -- -- 91
2020-06-26 04:00:00 14.4 9 Noroeste 24 Noroeste 0 -- -- 90
2020-06-26 03:00:00 15.2 8 Noroeste 27 Norte 0 -- -- 87
2020-06-26 02:00:00 15.5 12 Noroeste 21 Norte 0 -- -- 86
2020-06-26 01:00:00 16.3 3 Noroeste 17 Noroeste 0 -- -- 82
2020-06-26 00:00:00 17.7 10 Noroeste 18 Nordeste 0 -- -- 76
2020-06-25 23:00:00 19.2 5 Norte 26 Oeste 0 -- -- 70
2020-06-25 22:00:00 21.2 7 Noroeste 28 Noroeste 0 -- -- 64
2020-06-25 21:00:00 22.9 18 Noroeste 32 Noroeste 0 -- -- 55
2020-06-25 20:00:00 24 19 Noroeste 40 Oeste 0 -- -- 54
2020-06-25 19:00:00 25.2 16 Noroeste 37 Oeste 0 -- -- 54
2020-06-25 18:00:00 25.1 20 Noroeste 35 Oeste 0 -- -- 53
2020-06-25 17:00:00 23.5 12 Norte 19 Norte 0 -- -- 60
2020-06-25 16:00:00 22.9 6 Nordeste 16 Sudeste 1.4 -- -- 70
2020-06-25 15:00:00 23.9 3 Sur 15 Este 0 -- -- 59
2020-06-25 14:00:00 24.3 9 Este 15 Sudeste 0 -- -- 57
2020-06-25 13:00:00 24.2 8 Sudoeste 17 Sur 0 -- -- 55
2020-06-25 12:00:00 23.3 9 Sur 20 Sudeste 0 -- -- 56
2020-06-25 11:00:00 22.5 8 Sudeste 14 Sudeste 0 -- -- 59
2020-06-25 10:00:00 21.2 5 Este 10 Sudeste 0 -- -- 63
2020-06-25 09:00:00 17.6 8 Nordeste 14 Norte 0 -- -- 76
2020-06-25 08:00:00 14.3 10 Norte 14 Norte 0 -- -- 89
2020-06-25 07:00:00 13.5 6 Norte 16 Norte 0 -- -- 94
2020-06-25 06:00:00 14 11 Norte 15 Norte 0 -- -- 90
2020-06-25 05:00:00 13.8 6 Norte 9 Norte 0 -- -- 92
2020-06-25 04:00:00 13.9 6 Norte 8 Norte 0 -- -- 89
2020-06-25 03:00:00 14.3 4 Norte 9 Norte 0 -- -- 90
2020-06-25 02:00:00 14.2 2 Norte 22 Norte 0 -- -- 87
2020-06-25 01:00:00 14.6 17 Norte 23 Norte 0 -- -- 87
2020-06-25 00:00:00 14.6 2 Sudoeste 24 Norte 0 -- -- 87
2020-06-24 23:00:00 15.2 10 Norte 41 Nordeste 0.4 -- -- 84
2020-06-24 22:00:00 15.1 14 Norte 31 Norte 4.2 -- -- 94
2020-06-24 21:00:00 15.6 17 Norte 36 Norte 3 -- -- 87
2020-06-24 20:00:00 15.7 23 Norte 27 Norte 18 -- -- 92
2020-06-24 19:00:00 18.1 17 Norte 27 Norte 0.2 -- -- 80
2020-06-24 18:00:00 21.7 13 Nordeste 19 Norte 0 -- -- 64
2020-06-24 17:00:00 23.7 5 Norte 28 Sudoeste 0 -- -- 51
2020-06-24 16:00:00 27 12 Sur 27 Sur 0 -- -- 39
2020-06-24 15:00:00 28.8 12 Sur 28 Sur 0 -- -- 36
2020-06-24 14:00:00 29.4 12 Sudoeste 29 Sur 0 -- -- 39
2020-06-24 13:00:00 28 9 Sur 24 Sudeste 0 -- -- 37
2020-06-24 12:00:00 27.7 11 Sudeste 25 Sudeste 0 -- -- 39
2020-06-24 11:00:00 26.8 11 Sudeste 18 Sudeste 0 -- -- 36
2020-06-24 10:00:00 24.6 5 Sudeste 9 Norte 0 -- -- 48
2020-06-24 09:00:00 20.7 7 Norte 17 Norte 0 -- -- 55
2020-06-24 08:00:00 17.3 11 Norte 18 Norte 0 -- -- 66
2020-06-24 07:00:00 16.1 13 Norte 17 Norte 0 -- -- 67
2020-06-24 06:00:00 16.6 12 Norte 16 Norte 0 -- -- 66
2020-06-24 05:00:00 17.3 12 Norte 17 Norte 0 -- -- 69
2020-06-24 04:00:00 17.2 9 Norte 14 Norte 0 -- -- 72
2020-06-24 03:00:00 17.9 9 Norte 18 Norte 0 -- -- 70
2020-06-24 02:00:00 19.1 16 Norte 18 Norte 0 -- -- 68
2020-06-24 01:00:00 18.7 8 Este 14 Este 0 -- -- 67
2020-06-24 00:00:00 20.9 12 Norte 17 Norte 0 -- -- 57
2020-06-23 23:00:00 21.1 15 Norte 18 Norte 0 -- -- 58
2020-06-23 22:00:00 23.6 8 Norte 10 Norte 0 -- -- 62
2020-06-23 21:00:00 28.4 5 Norte 18 Noroeste 0 -- -- 35
2020-06-23 20:00:00 29 14 Norte 28 Norte 0 -- -- 34
2020-06-23 19:00:00 29.9 3 Nordeste 15 Sudeste 0 -- -- 30
2020-06-23 18:00:00 29.2 7 Nordeste 21 Norte 0 -- -- 37
2020-06-23 17:00:00 31.3 9 Noroeste 22 Oeste 0 -- -- 26
2020-06-23 16:00:00 30.4 9 Noroeste 21 Noroeste 0 -- -- 28
2020-06-23 15:00:00 28.7 13 Norte 25 Norte 0 -- -- 29
2020-06-23 14:00:00 29.3 4 Noroeste 11 Sudoeste 0 -- -- 30
2020-06-23 13:00:00 28.2 5 Sur 13 Sudoeste 0 -- -- 30
2020-06-23 12:00:00 26.5 7 Sudeste 15 Sudeste 0 -- -- 33
2020-06-23 11:00:00 25.1 7 Sudeste 15 Este 0 -- -- 39
2020-06-23 10:00:00 22.7 0 Calma 9 Norte 0 -- -- 42
2020-06-23 09:00:00 18.6 9 Norte 13 Norte 0 -- -- 62
2020-06-23 08:00:00 15.2 14 Norte 18 Norte 0 -- -- 72
2020-06-23 07:00:00 13.3 15 Norte 18 Norte 0 -- -- 79
2020-06-23 06:00:00 13.6 14 Norte 19 Norte 0 -- -- 76
2020-06-23 05:00:00 14.2 11 Norte 15 Norte 0 -- -- 74
2020-06-23 04:00:00 14.5 8 Norte 13 Norte 0 -- -- 71
2020-06-23 03:00:00 15.5 11 Norte 16 Norte 0 -- -- 66
2020-06-23 02:00:00 15.8 12 Norte 17 Norte 0 -- -- 66
2020-06-23 01:00:00 16.1 13 Norte 17 Norte 0 -- -- 64
2020-06-23 00:00:00 17 14 Norte 19 Norte 0 -- -- 63
2020-06-22 23:00:00 18.8 16 Norte 20 Norte 0 -- -- 60
2020-06-22 22:00:00 21.7 7 Nordeste 9 Norte 0 -- -- 56
2020-06-22 21:00:00 27.4 2 Sur 10 Sudoeste 0 -- -- 36
2020-06-22 20:00:00 27.9 5 Sudoeste 22 Sudeste 0 -- -- 33
2020-06-22 19:00:00 28 6 Sur 21 Sudoeste 0 -- -- 33
2020-06-22 18:00:00 28.3 8 Sudoeste 21 Sudeste 0 -- -- 32
2020-06-22 17:00:00 27.5 8 Sudeste 30 Este 0 -- -- 35
2020-06-22 16:00:00 27.4 7 Sur 22 Sudoeste 0 -- -- 40
2020-06-22 15:00:00 26.5 6 Sudoeste 19 Sudoeste 0 -- -- 41
2020-06-22 14:00:00 25.3 10 Sur 25 Este 0 -- -- 44
2020-06-22 13:00:00 23.8 10 Sur 18 Sur 0 -- -- 44
2020-06-22 12:00:00 21.1 8 Este 15 Sudeste 0 -- -- 53
2020-06-22 11:00:00 18.7 4 Sur 9 Sur 0 -- -- 65
2020-06-22 10:00:00 17 4 Sur 12 Sur 0 -- -- 72
2020-06-22 09:00:00 15.1 5 Sudoeste 8 Norte 0 -- -- 78
2020-06-22 08:00:00 12.3 7 Norte 13 Norte 0 -- -- 81
2020-06-22 07:00:00 10.7 8 Norte 19 Norte 0 -- -- 86
2020-06-22 06:00:00 11.4 13 Norte 17 Norte 0 -- -- 87
2020-06-22 05:00:00 11.3 15 Norte 18 Norte 0 -- -- 88
2020-06-22 04:00:00 12 12 Norte 16 Norte 0 -- -- 90
2020-06-22 03:00:00 12.9 3 Norte 10 Norte 0 -- -- 87
2020-06-22 02:00:00 14.6 8 Nordeste 24 Norte 0 -- -- 82
2020-06-22 01:00:00 15.2 11 Norte 16 Norte 0 -- -- 81
2020-06-22 00:00:00 15.4 12 Norte 15 Norte 0 -- -- 79
2020-06-21 23:00:00 17.4 10 Norte 17 Noroeste 0 -- -- 72
2020-06-21 22:00:00 19.4 12 Noroeste 34 Oeste 0 -- -- 62
2020-06-21 21:00:00 21.5 20 Noroeste 35 Noroeste 0 -- -- 57
2020-06-21 20:00:00 23.1 15 Noroeste 38 Noroeste 0 -- -- 53
2020-06-21 19:00:00 23.9 22 Noroeste 40 Noroeste 0 -- -- 50
2020-06-21 18:00:00 23.9 23 Noroeste 41 Noroeste 0 -- -- 48
2020-06-21 17:00:00 24.3 23 Noroeste 43 Noroeste 0 -- -- 50
2020-06-21 16:00:00 23.5 23 Oeste 42 Oeste 0 -- -- 51
2020-06-21 15:00:00 22.8 21 Oeste 40 Oeste 0 -- -- 53
2020-06-21 14:00:00 21.9 19 Oeste 32 Oeste 0 -- -- 53
2020-06-21 13:00:00 20.5 17 Oeste 33 Oeste 0 -- -- 55
2020-06-21 12:00:00 18.1 25 Oeste 36 Oeste 0 -- -- 61
2020-06-21 11:00:00 17.3 19 Noroeste 36 Oeste 0 -- -- 60
2020-06-21 10:00:00 16.1 11 Noroeste 22 Oeste 0 -- -- 63
2020-06-21 09:00:00 14.3 14 Norte 26 Norte 0 -- -- 66
2020-06-21 08:00:00 12.2 13 Noroeste 19 Norte 0 -- -- 72
2020-06-21 07:00:00 10.8 9 Noroeste 22 Noroeste 0 -- -- 79
2020-06-21 06:00:00 11.5 14 Norte 18 Norte 0 -- -- 81
2020-06-21 05:00:00 12.3 10 Nordeste 22 Norte 0 -- -- 81
2020-06-21 04:00:00 12.9 9 Nordeste 24 Norte 0 -- -- 79
2020-06-21 03:00:00 13.8 14 Norte 35 Noroeste 0 -- -- 78
2020-06-21 02:00:00 14.8 17 Noroeste 37 Noroeste 0 -- -- 74
2020-06-21 01:00:00 15.8 17 Noroeste 32 Noroeste 0 -- -- 70
2020-06-21 00:00:00 16.9 13 Noroeste 27 Norte 0 -- -- 61
2020-06-20 23:00:00 17 9 Norte 33 Noroeste 0 -- -- 54
2020-06-20 22:00:00 19.4 20 Noroeste 38 Noroeste 0 -- -- 40
2020-06-20 21:00:00 21.3 24 Noroeste 41 Noroeste 0 -- -- 39
2020-06-20 20:00:00 23.1 23 Noroeste 39 Noroeste 0 -- -- 37
2020-06-20 19:00:00 24 21 Noroeste 44 Oeste 0 -- -- 42
2020-06-20 18:00:00 24.1 23 Oeste 37 Oeste 0 -- -- 39
2020-06-20 17:00:00 24 19 Oeste 35 Oeste 0 -- -- 43
2020-06-20 16:00:00 24.1 6 Oeste 30 Oeste 0 -- -- 42
2020-06-20 15:00:00 23.2 11 Oeste 27 Oeste 0 -- -- 41
2020-06-20 14:00:00 21.9 10 Oeste 22 Oeste 0 -- -- 42
2020-06-20 13:00:00 21 7 Oeste 18 Sudoeste 0 -- -- 47
2020-06-20 12:00:00 18.8 13 Noroeste 24 Oeste 0 -- -- 50
2020-06-20 11:00:00 17.4 10 Oeste 19 Oeste 0 -- -- 57
2020-06-20 10:00:00 15.7 10 Oeste 19 Oeste 0 -- -- 69
2020-06-20 09:00:00 12.9 4 Sudoeste 9 Sudoeste 0 -- -- 83
2020-06-20 08:00:00 10 4 Noroeste 11 Oeste 0 -- -- 89
2020-06-20 07:00:00 9.6 6 Norte 16 Norte 0 -- -- 92
2020-06-20 06:00:00 8.6 11 Norte 22 Norte 0 -- -- 94
2020-06-20 05:00:00 8.5 16 Norte 18 Norte 0 -- -- 93
2020-06-20 04:00:00 8.9 12 Norte 15 Norte 0 -- -- 91
2020-06-20 03:00:00 10.8 9 Noroeste 12 Noroeste 0 -- -- 82
2020-06-20 02:00:00 11.4 5 Norte 10 Norte 0 -- -- 79
2020-06-20 01:00:00 12.5 5 Norte 16 Norte 0 -- -- 75
2020-06-20 00:00:00 14.3 14 Nordeste 26 Norte 0 -- -- 66
2020-06-19 23:00:00 16.3 18 Norte 30 Norte 0 -- -- 57
2020-06-19 22:00:00 17.6 18 Noroeste 33 Noroeste 0 -- -- 52
2020-06-19 21:00:00 19.4 23 Noroeste 36 Noroeste 0 -- -- 45
2020-06-19 20:00:00 20.8 23 Noroeste 43 Oeste 0 -- -- 43
2020-06-19 19:00:00 21.6 21 Noroeste 40 Noroeste 0 -- -- 45
2020-06-19 18:00:00 21.7 23 Noroeste 38 Noroeste 0 -- -- 44
2020-06-19 17:00:00 21.8 24 Noroeste 40 Oeste 0 -- -- 39
2020-06-19 16:00:00 21.2 21 Noroeste 36 Oeste 0 -- -- 28
2020-06-19 15:00:00 20.4 21 Noroeste 34 Oeste 0 -- -- 22
2020-06-19 14:00:00 19.3 21 Noroeste 32 Noroeste 0 -- -- 26
2020-06-19 13:00:00 18.2 17 Noroeste 28 Noroeste 0 -- -- 32
2020-06-19 12:00:00 16.2 13 Oeste 23 Oeste 0 -- -- 47
2020-06-19 11:00:00 14.6 8 Oeste 19 Oeste 0 -- -- 66
2020-06-19 10:00:00 12.6 11 Oeste 16 Oeste 0 -- -- 78
2020-06-19 09:00:00 10 11 Norte 26 Norte 0 -- -- 91
2020-06-19 08:00:00 9 13 Norte 19 Norte 0 -- -- 92
2020-06-19 07:00:00 7 5 Norte 11 Norte 0 -- -- 95
2020-06-19 06:00:00 6.9 7 Norte 12 Norte 0 -- -- 94
2020-06-19 05:00:00 8.1 9 Norte 13 Norte 0 -- -- 93
2020-06-19 04:00:00 9.1 8 Norte 14 Norte 0 -- -- 90
2020-06-19 03:00:00 10 7 Norte 18 Nordeste 0 -- -- 87
2020-06-19 02:00:00 10.7 6 Este 16 Oeste 0 -- -- 81
2020-06-19 01:00:00 12 14 Noroeste 24 Noroeste 0 -- -- 71
2020-06-19 00:00:00 13.2 9 Noroeste 26 Noroeste 0 -- -- 63
2020-06-18 23:00:00 14.3 14 Noroeste 30 Noroeste 0 -- -- 56
2020-06-18 22:00:00 15.3 12 Noroeste 31 Noroeste 0 -- -- 53
2020-06-18 21:00:00 17.5 13 Noroeste 35 Noroeste 0 -- -- 48
2020-06-18 20:00:00 18.5 21 Noroeste 34 Oeste 0 -- -- 46
2020-06-18 19:00:00 19.2 15 Noroeste 40 Oeste 0 -- -- 43
2020-06-18 18:00:00 19.8 13 Noroeste 34 Norte 0 -- -- 37
2020-06-18 17:00:00 19.5 18 Noroeste 41 Oeste 0 -- -- 36
2020-06-18 16:00:00 19.2 21 Oeste 41 Noroeste 0 -- -- 35
2020-06-18 15:00:00 17.8 23 Oeste 43 Oeste 0 -- -- 41
2020-06-18 14:00:00 17.6 15 Noroeste 37 Oeste 0 -- -- 43
2020-06-18 13:00:00 16.9 12 Oeste 23 Oeste 0 -- -- 54
2020-06-18 12:00:00 15.1 10 Oeste 19 Oeste 0 -- -- 61
2020-06-18 11:00:00 13.6 6 Sudoeste 17 Noroeste 0 -- -- 64
2020-06-18 10:00:00 12 6 Noroeste 14 Oeste 0 -- -- 76
2020-06-18 09:00:00 9.9 9 Norte 23 Norte 0 -- -- 85
2020-06-18 08:00:00 8.4 16 Norte 23 Norte 0 -- -- 91
2020-06-18 07:00:00 7.6 16 Norte 22 Norte 0 -- -- 97
2020-06-18 06:00:00 7 12 Norte 23 Norte 0 -- -- 97
2020-06-18 05:00:00 7.1 11 Norte 14 Norte 0 -- -- 94
2020-06-18 04:00:00 7.9 10 Norte 15 Norte 0 -- -- 92
2020-06-18 03:00:00 7.7 8 Norte 13 Noroeste 0 -- -- 93
2020-06-18 02:00:00 8.1 10 Norte 14 Norte 0 -- -- 91
2020-06-18 01:00:00 9.1 5 Norte 11 Norte 0 -- -- 87
2020-06-18 00:00:00 10.1 8 Norte 12 Norte 0 -- -- 82
2020-06-17 23:00:00 11.7 9 Nordeste 22 Oeste 0 -- -- 78
2020-06-17 22:00:00 12.7 10 Noroeste 23 Noroeste 0 -- -- 71
2020-06-17 21:00:00 14 17 Noroeste 36 Oeste 0 -- -- 65
2020-06-17 20:00:00 13.9 23 Oeste 35 Oeste 0 -- -- 66
2020-06-17 19:00:00 15.8 18 Noroeste 30 Noroeste 0 -- -- 53
2020-06-17 18:00:00 16.6 13 Noroeste 30 Noroeste 0 -- -- 52
2020-06-17 17:00:00 17.1 15 Noroeste 29 Oeste 0 -- -- 52
2020-06-17 16:00:00 16.2 12 Oeste 23 Norte 0 -- -- 50
2020-06-17 15:00:00 15.5 13 Norte 25 Oeste 0 -- -- 52
2020-06-17 14:00:00 14.6 9 Noroeste 20 Noroeste 0 -- -- 57
2020-06-17 13:00:00 13.3 5 Norte 17 Noroeste 0 -- -- 63
2020-06-17 12:00:00 12.4 11 Norte 24 Norte 0 -- -- 67
2020-06-17 11:00:00 11.9 12 Norte 25 Oeste 0 -- -- 75
2020-06-17 10:00:00 9.8 18 Noroeste 28 Oeste 0 -- -- 84
2020-06-17 09:00:00 10.4 6 Noroeste 20 Oeste 0 -- -- 80
2020-06-17 08:00:00 10.3 6 Noroeste 14 Noroeste 0 -- -- 81
2020-06-17 07:00:00 7.2 7 Norte 11 Nordeste 0 -- -- 95
2020-06-17 06:00:00 7.3 6 Noroeste 13 Norte 0 -- -- 95
2020-06-17 05:00:00 7.3 6 Norte 11 Noroeste 0 -- -- 95
2020-06-17 04:00:00 7.8 7 Noroeste 23 Noroeste 0 -- -- 94
2020-06-17 03:00:00 8.1 3 Oeste 12 Noroeste 0 -- -- 92
2020-06-17 02:00:00 9.2 8 Noroeste 13 Noroeste 0 -- -- 90
2020-06-17 01:00:00 9.5 2 Sudoeste 9 Sur 0 -- -- 89
2020-06-17 00:00:00 10.2 8 Noroeste 29 Noroeste 0 -- -- 85
2020-06-16 23:00:00 10.7 18 Noroeste 32 Noroeste 0 -- -- 82
2020-06-16 22:00:00 11.5 6 Noroeste 29 Noroeste 0 -- -- 78
2020-06-16 21:00:00 13.2 13 Noroeste 33 Noroeste 0 -- -- 68
2020-06-16 20:00:00 13.2 21 Noroeste 38 Noroeste 0 -- -- 69
2020-06-16 19:00:00 13.9 22 Noroeste 42 Oeste 0 -- -- 65
2020-06-16 18:00:00 15.2 27 Noroeste 55 Oeste 0 -- -- 62
2020-06-16 17:00:00 15.4 32 Oeste 50 Oeste 0 -- -- 63
2020-06-16 16:00:00 14.3 24 Noroeste 51 Oeste 0.2 -- -- 76
2020-06-16 15:00:00 13.5 26 Oeste 50 Oeste 0.6 -- -- 78
2020-06-16 14:00:00 15.2 23 Oeste 38 Oeste 0 -- -- 72
2020-06-16 13:00:00 14.1 16 Oeste 31 Noroeste 0 -- -- 80
2020-06-16 12:00:00 11.7 13 Oeste 26 Noroeste 0.2 -- -- 90
2020-06-16 11:00:00 11.4 16 Noroeste 29 Oeste 0 -- -- 90
2020-06-16 10:00:00 10.8 12 Oeste 22 Noroeste 0.4 -- -- 91
2020-06-16 09:00:00 10 12 Noroeste 24 Noroeste 0 -- -- 93
2020-06-16 08:00:00 9.8 10 Noroeste 23 Noroeste 0 -- -- 93
2020-06-16 07:00:00 9.6 5 Oeste 18 Oeste 0 -- -- 93
2020-06-16 06:00:00 9.3 3 Sudoeste 6 Sudoeste 0 -- -- 93
2020-06-16 05:00:00 9.1 0 Calma 8 Norte 0 -- -- 92
2020-06-16 04:00:00 8.4 4 Norte 10 Norte 0 -- -- 95
2020-06-16 03:00:00 8.4 8 Norte 11 Norte 0 -- -- 95
2020-06-16 02:00:00 9 11 Norte 21 Norte 0 -- -- 91
2020-06-16 01:00:00 9.8 11 Noroeste 22 Noroeste 0 -- -- 85
2020-06-16 00:00:00 10.1 10 Noroeste 22 Noroeste 0 -- -- 85
2020-06-15 23:00:00 10.5 6 Oeste 25 Oeste 0 -- -- 81
2020-06-15 22:00:00 11.9 17 Noroeste 30 Noroeste 0 -- -- 75
2020-06-15 21:00:00 13.1 15 Noroeste 32 Noroeste 0 -- -- 70
2020-06-15 20:00:00 14.3 20 Noroeste 31 Oeste 0 -- -- 65
2020-06-15 19:00:00 15.5 17 Noroeste 37 Noroeste 0 -- -- 60
2020-06-15 18:00:00 16.3 21 Noroeste 42 Noroeste 0 -- -- 57
2020-06-15 17:00:00 16.3 21 Noroeste 36 Noroeste 0 -- -- 59
2020-06-15 16:00:00 16.3 19 Noroeste 36 Oeste 0 -- -- 58
2020-06-15 15:00:00 15 21 Oeste 36 Oeste 0 -- -- 62
2020-06-15 14:00:00 14.2 24 Oeste 39 Oeste 0 -- -- 66
2020-06-15 13:00:00 13.1 20 Oeste 35 Oeste 0 -- -- 73
2020-06-15 12:00:00 12.7 20 Oeste 33 Oeste 0 -- -- 74
2020-06-15 11:00:00 12.4 20 Oeste 32 Oeste 0 -- -- 76
2020-06-15 10:00:00 11 12 Noroeste 27 Noroeste 0 -- -- 82
2020-06-15 09:00:00 10.2 4 Noroeste 21 Noroeste 0 -- -- 85
2020-06-15 08:00:00 9.1 4 Noroeste 14 Noroeste 0 -- -- 89
2020-06-15 07:00:00 8.4 0 Calma 13 Nordeste 0 -- -- 90
2020-06-15 06:00:00 8.8 7 Nordeste 20 Norte 0 -- -- 91
2020-06-15 05:00:00 9.2 10 Norte 17 Norte 0 -- -- 89
2020-06-15 04:00:00 8.6 8 Noroeste 16 Noroeste 0 -- -- 91
2020-06-15 03:00:00 8.6 8 Norte 14 Noroeste 0 -- -- 93
2020-06-15 02:00:00 8.6 10 Noroeste 21 Noroeste 0 -- -- 91
2020-06-15 01:00:00 9.2 15 Noroeste 30 Noroeste 0 -- -- 86
2020-06-15 00:00:00 9.8 12 Noroeste 26 Norte 0 -- -- 86
2020-06-14 23:00:00 9.4 9 Noroeste 24 Oeste 0 -- -- 90
2020-06-14 22:00:00 10.1 12 Oeste 35 Noroeste 0 -- -- 88
2020-06-14 21:00:00 11.8 18 Noroeste 31 Noroeste 0 -- -- 76
2020-06-14 20:00:00 13.1 20 Noroeste 34 Oeste 0 -- -- 70
2020-06-14 19:00:00 14.3 14 Noroeste 30 Oeste 0 -- -- 62
2020-06-14 18:00:00 14.8 22 Noroeste 42 Oeste 0 -- -- 59
2020-06-14 17:00:00 14.3 23 Noroeste 35 Oeste 0 -- -- 60
2020-06-14 16:00:00 13.1 17 Noroeste 33 Noroeste 0 -- -- 70
2020-06-14 15:00:00 12.5 18 Noroeste 32 Noroeste 0 -- -- 72
2020-06-14 14:00:00 14.4 17 Noroeste 38 Oeste 0 -- -- 65
2020-06-14 13:00:00 13.3 19 Oeste 32 Oeste 0 -- -- 68
2020-06-14 12:00:00 12.4 19 Oeste 35 Oeste 0 -- -- 72
2020-06-14 11:00:00 10.3 15 Oeste 31 Noroeste 0 -- -- 78
2020-06-14 10:00:00 9.7 13 Oeste 24 Oeste 0 -- -- 78
2020-06-14 09:00:00 8.2 6 Oeste 11 Oeste 0 -- -- 90
2020-06-14 08:00:00 7.7 3 Sudoeste 12 Nordeste 0 -- -- 91
2020-06-14 07:00:00 8.1 8 Nordeste 11 Nordeste 0 -- -- 90
2020-06-14 06:00:00 7.2 4 Noroeste 12 Oeste 0 -- -- 89
2020-06-14 05:00:00 7.2 6 Noroeste 17 Noroeste 0 -- -- 87
2020-06-14 04:00:00 7.9 9 Noroeste 31 Noroeste 0 -- -- 84
2020-06-14 03:00:00 8.2 16 Noroeste 30 Noroeste 0 -- -- 84
2020-06-14 02:00:00 8.6 17 Norte 27 Noroeste 0 -- -- 84
2020-06-14 01:00:00 8.8 16 Norte 29 Norte 0 -- -- 86
2020-06-14 00:00:00 9.3 22 Noroeste 34 Noroeste 0 -- -- 85
2020-06-13 23:00:00 9.5 12 Noroeste 30 Noroeste 0 -- -- 82
2020-06-13 22:00:00 10.8 19 Noroeste 32 Noroeste 0 -- -- 76
2020-06-13 21:00:00 11.7 13 Noroeste 28 Noroeste 0 -- -- 76
2020-06-13 20:00:00 12.5 18 Noroeste 38 Noroeste 0 -- -- 73
2020-06-13 19:00:00 13 22 Noroeste 43 Noroeste 0 -- -- 70
2020-06-13 18:00:00 14 29 Noroeste 52 Noroeste 0 -- -- 65
2020-06-13 17:00:00 13.3 21 Noroeste 43 Oeste 0 -- -- 74
2020-06-13 16:00:00 12.8 27 Noroeste 47 Oeste 0 -- -- 75
2020-06-13 15:00:00 13.1 18 Oeste 37 Noroeste 0 -- -- 73
2020-06-13 14:00:00 12.5 16 Noroeste 33 Oeste 0 -- -- 79
2020-06-13 13:00:00 9.3 19 Oeste 36 Oeste 0 -- -- 93
2020-06-13 12:00:00 9.4 15 Noroeste 35 Noroeste 0 -- -- 89
2020-06-13 11:00:00 8.6 23 Noroeste 42 Noroeste 0 -- -- 91
2020-06-13 10:00:00 7.9 21 Noroeste 34 Noroeste 0.2 -- -- 94
2020-06-13 09:00:00 7.4 17 Oeste 33 Oeste 0.2 -- -- 96
2020-06-13 08:00:00 7.2 19 Oeste 35 Oeste 1 -- -- 96
2020-06-13 07:00:00 7 20 Oeste 36 Oeste 1 -- -- 96
2020-06-13 06:00:00 7.2 19 Oeste 35 Oeste 0.2 -- -- 96
2020-06-13 05:00:00 7.3 19 Noroeste 36 Noroeste 0.2 -- -- 95
2020-06-13 04:00:00 7.4 17 Noroeste 33 Oeste 0 -- -- 95
2020-06-13 03:00:00 7.6 11 Noroeste 28 Noroeste 0.2 -- -- 94
2020-06-13 02:00:00 7.7 12 Noroeste 31 Noroeste 0 -- -- 94
2020-06-13 01:00:00 7.9 17 Noroeste 32 Noroeste 0.2 -- -- 94
2020-06-13 00:00:00 8 23 Noroeste 39 Oeste 0.4 -- -- 95
2020-06-12 23:00:00 7.8 18 Noroeste 31 Noroeste 0 -- -- 96
2020-06-12 22:00:00 8.1 17 Noroeste 35 Oeste 0.2 -- -- 94
2020-06-12 21:00:00 8.7 22 Noroeste 39 Noroeste 0 -- -- 91
2020-06-12 20:00:00 9.8 24 Noroeste 42 Oeste 0.2 -- -- 86
2020-06-12 19:00:00 10.4 27 Noroeste 48 Oeste 0 -- -- 84
2020-06-12 18:00:00 9.8 19 Oeste 37 Noroeste 0.8 -- -- 89
2020-06-12 17:00:00 8.9 24 Oeste 39 Oeste 0.8 -- -- 85
2020-06-12 16:00:00 9.6 15 Oeste 39 Oeste 1.8 -- -- 86
2020-06-12 15:00:00 9.1 23 Noroeste 44 Oeste 1 -- -- 89
2020-06-12 14:00:00 8.9 17 Oeste 32 Noroeste 1.4 -- -- 92
2020-06-12 13:00:00 8.1 15 Oeste 31 Oeste 0.8 -- -- 91
2020-06-12 12:00:00 7 18 Oeste 30 Oeste 0.4 -- -- 91
2020-06-12 11:00:00 6.8 17 Oeste 40 Oeste 0.6 -- -- 92
2020-06-12 10:00:00 6.4 20 Oeste 35 Oeste 0 -- -- 90
2020-06-12 09:00:00 6.4 21 Oeste 35 Oeste 0 -- -- 89
2020-06-12 08:00:00 6.4 21 Oeste 33 Noroeste 0 -- -- 91
2020-06-12 07:00:00 5.9 19 Oeste 33 Oeste 0 -- -- 92
2020-06-12 06:00:00 6 17 Oeste 28 Oeste 0 -- -- 91
2020-06-12 05:00:00 7.1 17 Noroeste 45 Noroeste 0 -- -- 90
2020-06-12 04:00:00 7.2 21 Noroeste 40 Oeste 1 -- -- 94
2020-06-12 03:00:00 6.8 26 Noroeste 50 Noroeste 0.6 -- -- 96
2020-06-12 02:00:00 6.4 19 Oeste 37 Oeste 0.6 -- -- 95
2020-06-12 01:00:00 6 9 Oeste 38 Noroeste 1 -- -- 95
2020-06-12 00:00:00 6 17 Oeste 42 Noroeste 0.2 -- -- 92